Time;durP1;ratioP1;P1;durP2;ratioP2;P2;SDS_P1;SDS_P2;PMS_P1;PMS_P2;Temp;Humidity;BMP_temperature;BMP_pressure;BME280_temperature;BME280_humidity;BME280_pressure;Samples;Min_cycle;Max_cycle;Signal;HPM_P1;HPM_P2
2022/01/10 00:02:00;;;;;;;;;;;2.80;1.00;;;;;;5039651;28;19952;-80
2022/01/10 00:04:26;;;;;;;;;;;2.80;1.00;;;;;;5060098;28;20011;-80
2022/01/10 00:06:51;;;;;;;;;;;2.80;1.00;;;;;;5058138;28;19916;-81
2022/01/10 00:09:16;;;;;;;;;;;2.90;1.00;;;;;;5057976;28;19984;-79
2022/01/10 00:11:42;;;;;;;;;;;2.90;1.00;;;;;;5038718;28;19924;-80
2022/01/10 00:14:07;;;;;;;;;;;2.90;1.00;;;;;;5058801;28;20044;-81
2022/01/10 00:16:33;;;;;;;;;;;2.90;1.00;;;;;;5058560;28;20305;-80
2022/01/10 00:18:58;;;;;;;;;;;2.90;1.00;;;;;;5059018;28;19959;-83
2022/01/10 00:21:24;;;;;;;;;;;2.90;1.00;;;;;;5057435;28;19962;-81
2022/01/10 00:23:49;;;;;;;;;;;2.80;1.00;;;;;;5059403;28;20630;-79
2022/01/10 00:26:15;;;;;;;;;;;2.80;1.00;;;;;;5041068;28;19909;-81
2022/01/10 00:28:41;;;;;;;;;;;2.70;1.00;;;;;;5061546;28;19919;-81
2022/01/10 00:31:07;;;;;;;;;;;2.70;1.00;;;;;;5057477;28;19916;-79
2022/01/10 00:33:32;;;;;;;;;;;2.70;1.00;;;;;;5058235;28;19913;-82
2022/01/10 00:35:57;;;;;;;;;;;2.60;1.00;;;;;;5058706;28;19917;-82
2022/01/10 00:38:23;;;;;;;;;;;2.60;1.00;;;;;;5058840;28;19908;-83
2022/01/10 00:40:50;;;;;;;;;;;2.60;1.00;;;;;;5055048;28;19952;-81
2022/01/10 00:43:29;;;;;;;;;;;2.50;1.00;;;;;;5039668;28;19916;-79
2022/01/10 00:45:55;;;;;;;;;;;2.50;1.00;;;;;;5056810;28;19991;-82
2022/01/10 00:48:20;;;;;;;;;;;2.50;1.00;;;;;;5058385;28;19956;-78
2022/01/10 00:50:46;;;;;;;;;;;2.50;1.00;;;;;;5057641;28;19919;-82
2022/01/10 00:53:11;;;;;;;;;;;2.50;1.00;;;;;;5040995;28;19992;-81
2022/01/10 00:55:37;;;;;;;;;;;2.50;1.00;;;;;;5058254;28;20019;-80
2022/01/10 00:58:02;;;;;;;;;;;2.40;1.00;;;;;;5056257;28;19913;-82
2022/01/10 01:00:28;;;;;;;;;;;2.40;1.00;;;;;;5055456;28;19920;-80
2022/01/10 01:02:53;;;;;;;;;;;2.40;1.00;;;;;;5056470;28;19924;-82
2022/01/10 01:05:20;;;;;;;;;;;2.40;1.00;;;;;;5041474;28;19966;-82
2022/01/10 01:07:46;;;;;;;;;;;2.40;1.00;;;;;;5057264;28;19913;-82
2022/01/10 01:13:03;;;;;;;;;;;2.40;1.00;;;;;;5014546;28;20339;-80
2022/01/10 01:15:34;;;;;;;;;;;2.40;1.00;;;;;;5057386;28;19916;-81
2022/01/10 01:25:39;;;;;;;;;;;2.30;1.00;;;;;;5057712;28;19974;-79
2022/01/10 01:28:05;;;;;;;;;;;2.30;1.00;;;;;;5057678;28;19913;-82
2022/01/10 01:30:30;;;;;;;;;;;2.30;1.00;;;;;;5055769;28;20371;-82
2022/01/10 01:32:58;;;;;;;;;;;2.30;1.00;;;;;;5057676;28;20262;-80
2022/01/10 01:35:25;;;;;;;;;;;2.30;1.00;;;;;;5056469;28;19912;-81
2022/01/10 01:37:51;;;;;;;;;;;2.40;1.00;;;;;;5057702;28;19916;-81
2022/01/10 01:40:18;;;;;;;;;;;2.40;1.00;;;;;;5055099;28;19917;-81
2022/01/10 01:42:44;;;;;;;;;;;2.40;1.00;;;;;;5038507;28;19920;-82
2022/01/10 01:45:10;;;;;;;;;;;2.30;1.00;;;;;;5057656;28;19913;-82
2022/01/10 01:47:36;;;;;;;;;;;2.30;1.00;;;;;;5057611;28;20015;-80
2022/01/10 01:50:03;;;;;;;;;;;2.30;1.00;;;;;;5039326;28;19921;-81
2022/01/10 01:52:28;;;;;;;;;;;2.30;1.00;;;;;;5055671;28;20361;-81
2022/01/10 01:54:54;;;;;;;;;;;2.20;1.00;;;;;;5056957;28;19936;-82
2022/01/10 01:57:20;;;;;;;;;;;2.20;1.00;;;;;;5040700;28;19981;-82
2022/01/10 01:59:46;;;;;;;;;;;2.20;1.00;;;;;;5055857;28;19912;-82
2022/01/10 02:02:11;;;;;;;;;;;2.20;1.00;;;;;;5054795;28;19935;-80
2022/01/10 02:04:37;;;;;;;;;;;2.20;1.00;;;;;;5039834;28;20300;-82
2022/01/10 02:07:02;;;;;;;;;;;2.10;1.00;;;;;;5057588;28;19988;-81
2022/01/10 02:09:28;;;;;;;;;;;2.10;1.00;;;;;;5057641;28;19918;-81
2022/01/10 02:11:53;;;;;;;;;;;2.10;1.00;;;;;;5040461;28;19940;-82
2022/01/10 02:14:19;;;;;;;;;;;2.10;1.00;;;;;;5041477;28;19913;-80
2022/01/10 02:16:54;;;;;;;;;;;2.10;1.00;;;;;;5059486;28;20341;-82
2022/01/10 02:19:19;;;;;;;;;;;2.10;1.00;;;;;;5061667;28;19944;-82
2022/01/10 02:21:45;;;;;;;;;;;2.00;1.00;;;;;;5058981;28;19936;-81
2022/01/10 02:24:10;;;;;;;;;;;2.00;1.00;;;;;;5042798;28;20376;-82
2022/01/10 02:26:39;;;;;;;;;;;2.00;1.00;;;;;;5060334;28;19913;-82
2022/01/10 02:29:06;;;;;;;;;;;2.00;1.00;;;;;;5059971;28;19909;-81
2022/01/10 02:31:35;;;;;;;;;;;2.00;1.00;;;;;;5040518;28;19913;-82
2022/01/10 02:34:01;;;;;;;;;;;2.00;1.00;;;;;;5056508;28;19920;-82
2022/01/10 02:36:27;;;;;;;;;;;2.00;1.00;;;;;;5059952;28;19916;-81
2022/01/10 02:38:56;;;;;;;;;;;2.00;1.00;;;;;;5059650;28;19920;-82
2022/01/10 02:41:23;;;;;;;;;;;2.00;1.00;;;;;;5059286;28;19913;-82
2022/01/10 02:43:49;;;;;;;;;;;2.00;1.00;;;;;;5061634;28;20008;-81
2022/01/10 02:46:14;;;;;;;;;;;1.90;1.00;;;;;;5061294;28;20392;-82
2022/01/10 02:48:40;;;;;;;;;;;2.00;1.00;;;;;;5057491;28;19909;-81
2022/01/10 02:51:05;;;;;;;;;;;2.00;1.00;;;;;;5059066;28;19920;-80
2022/01/10 02:53:31;;;;;;;;;;;2.10;1.00;;;;;;5059539;28;19917;-80
2022/01/10 02:55:56;;;;;;;;;;;2.10;1.00;;;;;;5059668;28;19912;-82
2022/01/10 02:58:22;;;;;;;;;;;2.20;1.00;;;;;;5060333;28;19920;-81
2022/01/10 03:00:47;;;;;;;;;;;2.20;1.00;;;;;;5038189;28;19944;-80
2022/01/10 03:03:12;;;;;;;;;;;2.30;1.00;;;;;;5060019;28;19913;-80
2022/01/10 03:05:38;;;;;;;;;;;2.30;1.00;;;;;;5059360;28;19927;-80
2022/01/10 03:08:04;;;;;;;;;;;2.30;1.00;;;;;;5060486;28;20356;-80
2022/01/10 03:10:29;;;;;;;;;;;2.30;1.00;;;;;;5059077;28;19917;-82
2022/01/10 03:12:55;;;;;;;;;;;2.30;1.00;;;;;;5060006;28;19934;-81
2022/01/10 03:15:20;;;;;;;;;;;2.30;1.00;;;;;;5059543;28;19966;-81
2022/01/10 03:17:46;;;;;;;;;;;2.30;1.00;;;;;;5041866;28;19923;-81
2022/01/10 03:20:12;;;;;;;;;;;2.30;1.00;;;;;;5056771;28;19917;-81
2022/01/10 03:22:37;;;;;;;;;;;2.30;1.00;;;;;;5058731;28;20333;-79
2022/01/10 03:25:04;;;;;;;;;;;2.30;1.00;;;;;;5058750;28;19913;-80
2022/01/10 03:27:29;;;;;;;;;;;2.30;1.00;;;;;;5057500;28;19913;-81
2022/01/10 03:29:55;;;;;;;;;;;2.30;1.00;;;;;;5059365;28;19919;-81
2022/01/10 03:32:20;;;;;;;;;;;2.30;1.00;;;;;;5058227;28;19913;-81
2022/01/10 03:34:46;;;;;;;;;;;2.30;1.00;;;;;;5059824;28;19913;-81
2022/01/10 03:37:11;;;;;;;;;;;2.30;1.00;;;;;;5058913;28;19935;-80
2022/01/10 03:39:37;;;;;;;;;;;2.20;1.00;;;;;;5058998;28;19921;-82
2022/01/10 03:42:02;;;;;;;;;;;2.20;1.00;;;;;;5057964;28;19920;-80
2022/01/10 03:44:28;;;;;;;;;;;2.20;1.00;;;;;;5058405;28;19919;-79
2022/01/10 03:46:56;;;;;;;;;;;2.10;1.00;;;;;;5040609;28;20293;-81
2022/01/10 03:49:21;;;;;;;;;;;2.10;1.00;;;;;;5059171;28;19913;-82
2022/01/10 03:51:47;;;;;;;;;;;2.10;1.00;;;;;;5057921;28;20308;-81
2022/01/10 03:54:12;;;;;;;;;;;2.00;1.00;;;;;;5057048;28;19921;-80
2022/01/10 03:56:38;;;;;;;;;;;1.90;1.00;;;;;;5059500;28;19912;-82
2022/01/10 03:59:04;;;;;;;;;;;1.90;1.00;;;;;;5059595;28;19924;-80
2022/01/10 04:01:29;;;;;;;;;;;1.80;1.00;;;;;;5037547;28;19920;-80
2022/01/10 04:03:56;;;;;;;;;;;1.80;1.00;;;;;;5059495;28;19913;-81
2022/01/10 04:06:21;;;;;;;;;;;1.80;1.00;;;;;;5058024;28;19920;-81
2022/01/10 04:08:47;;;;;;;;;;;1.70;1.00;;;;;;5058596;28;19917;-82
2022/01/10 04:11:12;;;;;;;;;;;1.70;1.00;;;;;;5057555;28;20397;-82
2022/01/10 04:13:40;;;;;;;;;;;1.70;1.00;;;;;;5039701;28;19920;-82
2022/01/10 04:16:05;;;;;;;;;;;1.70;1.00;;;;;;5056574;28;19912;-82
2022/01/10 04:18:30;;;;;;;;;;;1.70;1.00;;;;;;5054270;28;20447;-80
2022/01/10 04:20:56;;;;;;;;;;;1.70;1.00;;;;;;5038118;28;19917;-81
2022/01/10 04:23:22;;;;;;;;;;;1.70;1.00;;;;;;5057399;28;19940;-81
2022/01/10 04:25:47;;;;;;;;;;;1.70;1.00;;;;;;5061875;28;19928;-80
2022/01/10 04:28:12;;;;;;;;;;;1.70;1.00;;;;;;5057538;28;19921;-80
2022/01/10 04:30:38;;;;;;;;;;;1.70;1.00;;;;;;5058472;28;20266;-82
2022/01/10 04:33:04;;;;;;;;;;;1.70;1.00;;;;;;5056898;28;20011;-81
2022/01/10 04:35:30;;;;;;;;;;;1.70;1.00;;;;;;5058361;28;19913;-80
2022/01/10 04:37:55;;;;;;;;;;;1.70;1.00;;;;;;5056894;28;19913;-82
2022/01/10 04:40:21;;;;;;;;;;;1.80;1.00;;;;;;5058062;28;19923;-81
2022/01/10 04:42:47;;;;;;;;;;;1.80;1.00;;;;;;5056908;28;19946;-83
2022/01/10 04:45:13;;;;;;;;;;;1.80;1.00;;;;;;5055776;28;19932;-81
2022/01/10 04:47:38;;;;;;;;;;;1.80;1.00;;;;;;5057506;28;20377;-81
2022/01/10 04:50:37;;;;;;;;;;;1.80;1.00;;;;;;5057237;28;19919;-80
2022/01/10 04:52:59;;;;;;;;;;;1.80;1.00;;;;;;5045210;28;19978;-82
2022/01/10 04:55:24;;;;;;;;;;;1.80;1.00;;;;;;5052100;28;19913;-82
2022/01/10 04:57:50;;;;;;;;;;;1.80;1.00;;;;;;5057169;28;19959;-82
2022/01/10 05:00:16;;;;;;;;;;;1.80;1.00;;;;;;5056828;28;20003;-81
2022/01/10 05:02:43;;;;;;;;;;;1.80;1.00;;;;;;5040364;28;19913;-80
2022/01/10 05:05:08;;;;;;;;;;;1.80;1.00;;;;;;5057923;28;20385;-81
2022/01/10 05:07:34;;;;;;;;;;;1.80;1.00;;;;;;5057089;28;19966;-80
2022/01/10 05:09:59;;;;;;;;;;;1.80;1.00;;;;;;5057206;28;19913;-81
2022/01/10 05:12:26;;;;;;;;;;;1.90;1.00;;;;;;5039301;28;20416;-81
2022/01/10 05:14:52;;;;;;;;;;;1.90;1.00;;;;;;5057138;28;19913;-81
2022/01/10 05:17:19;;;;;;;;;;;1.90;1.00;;;;;;5050494;28;19986;-81
2022/01/10 05:19:45;;;;;;;;;;;1.90;1.00;;;;;;5057173;28;19944;-80
2022/01/10 05:22:10;;;;;;;;;;;2.00;1.00;;;;;;5039687;28;20372;-80
2022/01/10 05:24:36;;;;;;;;;;;2.00;1.00;;;;;;5055422;28;19919;-82
2022/01/10 05:27:01;;;;;;;;;;;2.10;1.00;;;;;;5058472;28;19968;-82
2022/01/10 05:29:27;;;;;;;;;;;2.10;1.00;;;;;;5057336;28;20377;-81
2022/01/10 05:31:52;;;;;;;;;;;2.10;1.00;;;;;;5057707;28;19913;-82
2022/01/10 05:34:18;;;;;;;;;;;2.20;1.00;;;;;;5055817;28;19913;-80
2022/01/10 05:36:43;;;;;;;;;;;2.20;1.00;;;;;;5055967;28;20284;-82
2022/01/10 05:39:09;;;;;;;;;;;2.30;1.00;;;;;;5055824;28;20015;-82
2022/01/10 05:41:34;;;;;;;;;;;2.30;1.00;;;;;;5056220;28;19912;-80
2022/01/10 05:44:00;;;;;;;;;;;2.40;1.00;;;;;;5055747;28;19913;-82
2022/01/10 05:46:26;;;;;;;;;;;2.40;1.00;;;;;;5059354;28;19913;-82
2022/01/10 05:48:52;;;;;;;;;;;2.50;1.00;;;;;;5060899;28;20284;-82
2022/01/10 05:51:18;;;;;;;;;;;2.50;1.00;;;;;;5057974;28;19924;-82
2022/01/10 05:53:43;;;;;;;;;;;2.40;1.00;;;;;;5038908;22;19926;-80
2022/01/10 05:56:09;;;;;;;;;;;2.40;1.00;;;;;;4998784;28;20394;-80
2022/01/10 05:58:34;;;;;;;;;;;2.40;1.00;;;;;;4998310;28;19964;-80
2022/01/10 06:01:00;;;;;;;;;;;2.30;1.00;;;;;;4996302;28;19922;-80
2022/01/10 06:03:25;;;;;;;;;;;2.30;1.00;;;;;;4981159;28;19961;-80
2022/01/10 06:05:51;;;;;;;;;;;2.30;1.00;;;;;;5000631;28;19914;-80
2022/01/10 06:08:16;;;;;;;;;;;2.20;1.00;;;;;;4997591;28;19972;-79
2022/01/10 06:10:42;;;;;;;;;;;2.20;1.00;;;;;;4999196;28;20000;-79
2022/01/10 06:13:07;;;;;;;;;;;2.20;1.00;;;;;;4994156;28;20378;-80
2022/01/10 06:15:33;;;;;;;;;;;2.20;1.00;;;;;;4991915;28;20019;-80
2022/01/10 06:17:59;;;;;;;;;;;2.20;1.00;;;;;;4998092;28;19921;-79
2022/01/10 06:20:25;;;;;;;;;;;2.20;1.00;;;;;;4981093;28;19944;-79
2022/01/10 06:22:51;;;;;;;;;;;2.10;1.00;;;;;;4998165;28;20437;-80
2022/01/10 06:25:18;;;;;;;;;;;2.10;1.00;;;;;;4998875;28;19966;-79
2022/01/10 06:27:44;;;;;;;;;;;2.10;1.00;;;;;;4982013;28;19957;-79
2022/01/10 06:30:10;;;;;;;;;;;2.10;1.00;;;;;;4997888;28;19913;-79
2022/01/10 06:32:35;;;;;;;;;;;2.00;1.00;;;;;;4981229;28;19910;-79
2022/01/10 06:35:01;;;;;;;;;;;2.00;1.00;;;;;;4997505;28;19918;-79
2022/01/10 06:37:26;;;;;;;;;;;2.10;1.00;;;;;;4997961;28;20000;-78
2022/01/10 06:39:52;;;;;;;;;;;2.10;1.00;;;;;;4972730;28;20401;-79
2022/01/10 06:42:18;;;;;;;;;;;2.00;1.00;;;;;;4979389;28;19968;-79
2022/01/10 06:44:43;;;;;;;;;;;2.00;1.00;;;;;;4997648;28;19920;-79
2022/01/10 06:47:09;;;;;;;;;;;2.00;1.00;;;;;;4979511;28;20000;-80
2022/01/10 06:49:34;;;;;;;;;;;2.00;1.00;;;;;;4992279;28;20081;-80
2022/01/10 06:52:00;;;;;;;;;;;2.00;1.00;;;;;;4978815;28;19925;-80
2022/01/10 06:54:25;;;;;;;;;;;2.00;1.00;;;;;;4990402;28;19925;-79
2022/01/10 06:56:51;;;;;;;;;;;2.00;1.00;;;;;;4995759;28;19913;-79
2022/01/10 06:59:17;;;;;;;;;;;2.10;1.00;;;;;;4979677;28;19920;-79
2022/01/10 07:01:42;;;;;;;;;;;2.10;1.00;;;;;;4998186;28;20283;-79
2022/01/10 07:04:09;;;;;;;;;;;2.10;1.00;;;;;;4998537;28;19909;-79
2022/01/10 07:06:34;;;;;;;;;;;2.10;1.00;;;;;;4988362;28;19937;-79
2022/01/10 07:09:00;;;;;;;;;;;2.10;1.00;;;;;;4982443;28;20000;-82
2022/01/10 07:11:26;;;;;;;;;;;2.10;1.00;;;;;;4979677;28;19914;-81
2022/01/10 07:13:52;;;;;;;;;;;2.10;1.00;;;;;;4997172;28;19910;-81
2022/01/10 07:16:18;;;;;;;;;;;2.20;1.00;;;;;;4980043;28;20283;-81
2022/01/10 07:18:43;;;;;;;;;;;2.20;1.00;;;;;;4988178;28;19914;-81
2022/01/10 07:21:09;;;;;;;;;;;2.20;1.00;;;;;;4987688;28;19918;-81
2022/01/10 07:23:34;;;;;;;;;;;2.20;1.00;;;;;;4993344;28;19956;-80
2022/01/10 07:26:00;;;;;;;;;;;2.10;1.00;;;;;;4989759;28;19914;-81
2022/01/10 07:28:28;;;;;;;;;;;2.20;1.00;;;;;;5001955;28;20476;-81
2022/01/10 07:30:53;;;;;;;;;;;2.20;1.00;;;;;;4989534;28;20005;-81
2022/01/10 07:33:18;;;;;;;;;;;2.20;1.00;;;;;;5007410;28;19913;-82
2022/01/10 07:35:44;;;;;;;;;;;2.20;1.00;;;;;;4987648;28;19948;-82
2022/01/10 07:38:09;;;;;;;;;;;2.20;1.00;;;;;;4998841;28;19921;-82
2022/01/10 07:40:35;;;;;;;;;;;2.30;1.00;;;;;;4991043;28;20305;-82
2022/01/10 07:43:00;;;;;;;;;;;2.30;1.00;;;;;;4991896;28;19951;-81
2022/01/10 07:45:26;;;;;;;;;;;2.30;1.00;;;;;;4997140;28;20412;-82
2022/01/10 07:47:51;;;;;;;;;;;2.30;1.00;;;;;;4979628;28;20343;-82
2022/01/10 07:50:17;;;;;;;;;;;2.30;99.90;;;;;;4979882;28;19910;-82
2022/01/10 07:52:42;;;;;;;;;;;2.30;99.90;;;;;;4996933;28;19921;-81
2022/01/10 07:55:08;;;;;;;;;;;2.30;99.90;;;;;;4996341;28;19913;-82
2022/01/10 07:57:34;;;;;;;;;;;2.40;99.90;;;;;;4997576;28;19914;-82
2022/01/10 07:59:59;;;;;;;;;;;2.40;99.90;;;;;;4998698;28;19925;-84
2022/01/10 08:02:26;;;;;;;;;;;2.50;99.90;;;;;;4998430;28;19969;-81
2022/01/10 08:04:51;;;;;;;;;;;2.60;99.90;;;;;;4994180;28;20406;-81
2022/01/10 08:07:17;;;;;;;;;;;2.70;99.90;;;;;;4962488;28;19910;-83
2022/01/10 08:09:42;;;;;;;;;;;2.80;99.90;;;;;;4962335;28;20363;-82
2022/01/10 08:12:08;;;;;;;;;;;2.90;99.90;;;;;;4973713;28;20002;-83
2022/01/10 08:14:34;;;;;;;;;;;3.00;90.50;;;;;;4990541;28;20013;-82
2022/01/10 08:17:00;;;;;;;;;;;3.20;5.20;;;;;;4979415;28;19909;-82
2022/01/10 08:19:31;;;;;;;;;;;3.40;1.00;;;;;;4980476;28;19918;-83
2022/01/10 08:21:57;;;;;;;;;;;3.60;1.00;;;;;;4980324;28;19961;-82
2022/01/10 08:24:23;;;;;;;;;;;3.80;99.90;;;;;;4979108;28;19909;-81
2022/01/10 08:26:48;;;;;;;;;;;4.20;49.50;;;;;;4996031;28;19918;-82
2022/01/10 08:29:14;;;;;;;;;;;4.90;7.80;;;;;;4995126;28;19910;-82
2022/01/10 08:31:40;;;;;;;;;;;5.60;99.90;;;;;;4993465;28;19914;-82
2022/01/10 08:34:06;;;;;;;;;;;6.40;1.00;;;;;;4978974;28;19937;-82
2022/01/10 08:36:32;;;;;;;;;;;7.10;1.00;;;;;;4972684;28;19914;-83
2022/01/10 08:38:57;;;;;;;;;;;7.80;99.90;;;;;;4979903;28;20450;-78
2022/01/10 08:41:23;;;;;;;;;;;8.90;1.00;;;;;;4995399;28;19914;-80
2022/01/10 08:43:48;;;;;;;;;;;9.90;1.00;;;;;;4993679;28;19914;-80
2022/01/10 08:46:14;;;;;;;;;;;10.30;1.00;;;;;;4996430;28;20325;-79
2022/01/10 08:48:40;;;;;;;;;;;10.30;1.00;;;;;;4974901;28;19914;-79
2022/01/10 08:51:06;;;;;;;;;;;10.60;1.00;;;;;;4979987;28;19913;-83
2022/01/10 08:53:31;;;;;;;;;;;11.20;1.00;;;;;;4998022;28;20012;-83
2022/01/10 08:55:57;;;;;;;;;;;12.00;1.00;;;;;;4981331;28;19941;-80
2022/01/10 08:58:24;;;;;;;;;;;12.60;1.00;;;;;;4998573;28;20013;-80
2022/01/10 09:00:50;;;;;;;;;;;12.80;1.00;;;;;;4998264;28;20371;-80
2022/01/10 09:03:16;;;;;;;;;;;12.50;1.00;;;;;;4985563;28;19914;-83
2022/01/10 09:05:41;;;;;;;;;;;12.10;1.00;;;;;;5012024;28;19909;-81
2022/01/10 09:08:07;;;;;;;;;;;11.60;1.00;;;;;;5017078;28;20063;-80
2022/01/10 09:10:32;;;;;;;;;;;11.00;1.00;;;;;;5017464;28;19910;-80
2022/01/10 09:12:58;;;;;;;;;;;10.50;1.00;;;;;;4999660;28;19909;-80
2022/01/10 09:15:23;;;;;;;;;;;9.90;1.00;;;;;;4991839;28;19956;-80
2022/01/10 09:17:49;;;;;;;;;;;9.50;1.00;;;;;;4992418;28;19920;-80
2022/01/10 09:20:15;;;;;;;;;;;9.10;1.00;;;;;;4974980;28;19984;-79
2022/01/10 09:22:40;;;;;;;;;;;8.90;1.00;;;;;;4999498;28;19949;-80
2022/01/10 09:25:06;;;;;;;;;;;8.70;1.00;;;;;;5008572;28;19937;-81
2022/01/10 09:27:31;;;;;;;;;;;8.50;1.00;;;;;;4995775;28;20286;-80
2022/01/10 09:29:57;;;;;;;;;;;8.30;1.00;;;;;;5007271;28;19914;-80
2022/01/10 09:32:22;;;;;;;;;;;8.10;1.00;;;;;;5005244;28;19914;-80
2022/01/10 09:34:48;;;;;;;;;;;8.00;1.00;;;;;;4984671;28;19926;-81
2022/01/10 09:37:13;;;;;;;;;;;7.90;1.00;;;;;;4986326;28;19973;-81
2022/01/10 09:39:39;;;;;;;;;;;7.80;1.00;;;;;;5005714;28;19989;-82
2022/01/10 09:42:04;;;;;;;;;;;7.60;1.00;;;;;;4988274;28;19918;-80
2022/01/10 09:44:30;;;;;;;;;;;7.30;1.00;;;;;;4980968;28;20097;-81
2022/01/10 09:46:55;;;;;;;;;;;7.20;1.00;;;;;;5003847;28;20000;-81
2022/01/10 09:49:21;;;;;;;;;;;7.10;1.00;;;;;;4998292;28;19932;-82
2022/01/10 09:51:47;;;;;;;;;;;7.00;1.00;;;;;;4983901;28;19917;-82
2022/01/10 09:54:12;;;;;;;;;;;7.10;1.00;;;;;;4989158;28;20023;-81
2022/01/10 09:56:38;;;;;;;;;;;7.10;1.00;;;;;;4999850;28;20012;-80
2022/01/10 09:59:04;;;;;;;;;;;7.10;1.00;;;;;;4987962;28;19914;-81
2022/01/10 10:01:30;;;;;;;;;;;7.10;1.00;;;;;;5007124;28;19913;-80
2022/01/10 10:03:58;;;;;;;;;;;7.00;1.00;;;;;;4986636;28;20354;-81
2022/01/10 10:06:25;;;;;;;;;;;7.10;1.00;;;;;;4990858;28;20041;-81
2022/01/10 10:08:50;;;;;;;;;;;7.10;1.00;;;;;;4988979;28;19909;-81
2022/01/10 10:11:16;;;;;;;;;;;7.10;1.00;;;;;;4988018;28;19909;-81
2022/01/10 10:13:51;;;;;;;;;;;7.10;1.00;;;;;;4985216;28;20004;-81
2022/01/10 10:16:17;;;;;;;;;;;7.10;1.00;;;;;;4986260;28;19917;-81
2022/01/10 10:18:46;;;;;;;;;;;7.20;1.00;;;;;;5005461;28;19960;-81
2022/01/10 10:21:12;;;;;;;;;;;7.20;1.00;;;;;;5002780;28;19918;-82
2022/01/10 10:23:40;;;;;;;;;;;7.20;1.00;;;;;;5001934;28;19910;-81
2022/01/10 10:26:06;;;;;;;;;;;7.20;1.00;;;;;;4986984;28;19912;-81
2022/01/10 10:28:32;;;;;;;;;;;7.20;1.00;;;;;;4987105;28;20000;-81
2022/01/10 10:30:58;;;;;;;;;;;7.10;1.00;;;;;;5002014;28;19953;-81
2022/01/10 10:33:25;;;;;;;;;;;7.00;1.00;;;;;;5002218;28;20285;-81
2022/01/10 10:36:08;;;;;;;;;;;7.00;1.00;;;;;;5001835;28;19922;-81
2022/01/10 10:38:33;;;;;;;;;;;7.00;1.00;;;;;;4998603;28;19953;-81
2022/01/10 10:41:00;;;;;;;;;;;6.90;1.00;;;;;;4986648;28;19914;-81
2022/01/10 10:43:25;;;;;;;;;;;6.80;1.00;;;;;;5001640;28;19917;-81
2022/01/10 10:45:51;;;;;;;;;;;6.90;1.00;;;;;;5005441;28;19906;-81
2022/01/10 10:48:17;;;;;;;;;;;6.90;1.00;;;;;;4991882;28;19964;-81
2022/01/10 10:50:45;;;;;;;;;;;7.00;1.00;;;;;;5025127;28;19906;-81
2022/01/10 10:53:13;;;;;;;;;;;7.00;1.00;;;;;;5000380;28;19914;-81
2022/01/10 10:55:40;;;;;;;;;;;6.90;1.00;;;;;;4997410;28;20270;-81
2022/01/10 10:58:06;;;;;;;;;;;6.90;1.00;;;;;;4988659;28;19921;-81
2022/01/10 11:00:32;;;;;;;;;;;6.80;1.00;;;;;;4987564;28;19914;-81
2022/01/10 11:02:58;;;;;;;;;;;6.80;1.00;;;;;;5002007;28;19914;-82
2022/01/10 11:05:24;;;;;;;;;;;6.80;1.00;;;;;;4972323;28;19957;-81
2022/01/10 11:07:49;;;;;;;;;;;6.80;1.00;;;;;;5007061;28;19906;-81
2022/01/10 11:10:15;;;;;;;;;;;6.80;1.00;;;;;;5003022;28;19906;-81
2022/01/10 11:12:44;;;;;;;;;;;6.90;1.00;;;;;;5011994;28;19906;-81
2022/01/10 11:15:09;;;;;;;;;;;7.00;1.00;;;;;;5021873;28;19913;-81
2022/01/10 11:17:39;;;;;;;;;;;7.10;1.00;;;;;;4994172;28;19906;-79
2022/01/10 11:20:12;;;;;;;;;;;7.20;1.00;;;;;;5005194;28;20016;-81
2022/01/10 11:22:39;;;;;;;;;;;7.20;1.00;;;;;;5014105;28;20553;-81
2022/01/10 11:25:04;;;;;;;;;;;7.20;1.00;;;;;;5003739;28;19940;-81
2022/01/10 11:27:37;;;;;;;;;;;7.30;1.00;;;;;;4999068;28;19969;-81
2022/01/10 11:30:11;;;;;;;;;;;7.40;1.00;;;;;;5004061;28;19910;-79
2022/01/10 11:32:49;;;;;;;;;;;7.70;1.00;;;;;;5001781;28;19910;-81
2022/01/10 11:35:15;;;;;;;;;;;8.80;1.00;;;;;;5001393;28;19920;-81
2022/01/10 11:37:40;;;;;;;;;;;10.00;1.00;;;;;;4983425;28;19964;-79
2022/01/10 11:40:07;;;;;;;;;;;11.30;1.00;;;;;;4998339;28;19913;-79
2022/01/10 11:42:54;;;;;;;;;;;12.40;1.00;;;;;;4999596;28;19914;-78
2022/01/10 11:45:21;;;;;;;;;;;13.70;1.00;;;;;;4977485;28;19914;-79
2022/01/10 11:48:02;;;;;;;;;;;14.70;1.00;;;;;;4996203;28;19921;-80
2022/01/10 11:50:30;;;;;;;;;;;14.60;1.00;;;;;;4988713;28;19918;-80
2022/01/10 11:52:57;;;;;;;;;;;15.20;1.00;;;;;;4992105;28;19914;-80
2022/01/10 11:55:41;;;;;;;;;;;15.40;1.00;;;;;;4996983;28;19914;-80
2022/01/10 11:58:15;;;;;;;;;;;16.30;1.00;;;;;;4997572;28;19925;-80
2022/01/10 12:00:41;;;;;;;;;;;17.10;1.00;;;;;;4997158;28;19921;-80
2022/01/10 12:03:06;;;;;;;;;;;17.30;1.00;;;;;;5000362;28;20271;-80
2022/01/10 12:05:32;;;;;;;;;;;17.20;1.00;;;;;;4982899;28;19968;-80
2022/01/10 12:07:57;;;;;;;;;;;17.00;1.00;;;;;;4994479;28;19949;-80
2022/01/10 12:10:23;;;;;;;;;;;17.00;1.00;;;;;;5000388;28;19917;-79
2022/01/10 12:12:53;;;;;;;;;;;17.40;1.00;;;;;;4980295;28;19973;-80
2022/01/10 12:15:18;;;;;;;;;;;17.80;1.00;;;;;;5002275;28;19992;-79
2022/01/10 12:17:44;;;;;;;;;;;18.40;1.00;;;;;;4985308;28;19949;-80
2022/01/10 12:20:09;;;;;;;;;;;18.80;1.00;;;;;;5000167;28;19914;-81
2022/01/10 12:22:35;;;;;;;;;;;18.50;1.00;;;;;;4989252;28;19914;-80
2022/01/10 12:25:01;;;;;;;;;;;19.00;1.00;;;;;;5002088;28;19917;-80
2022/01/10 12:27:27;;;;;;;;;;;19.50;1.00;;;;;;4995888;28;19914;-81
2022/01/10 12:29:52;;;;;;;;;;;19.60;1.00;;;;;;4999643;28;19918;-81
2022/01/10 12:32:19;;;;;;;;;;;18.70;1.00;;;;;;4996981;28;20390;-81
2022/01/10 12:34:45;;;;;;;;;;;18.60;1.00;;;;;;4982631;28;19921;-80
2022/01/10 12:37:11;;;;;;;;;;;18.40;1.00;;;;;;5017126;28;19909;-81
2022/01/10 12:39:38;;;;;;;;;;;18.50;1.00;;;;;;4988403;28;19918;-81
2022/01/10 12:42:03;;;;;;;;;;;18.60;1.00;;;;;;4983233;28;19910;-81
2022/01/10 12:44:29;;;;;;;;;;;18.40;1.00;;;;;;4982066;28;19936;-80
2022/01/10 12:46:55;;;;;;;;;;;18.70;1.00;;;;;;4999526;28;19925;-80
2022/01/10 12:49:21;;;;;;;;;;;18.70;1.00;;;;;;4998532;28;19924;-80
2022/01/10 12:51:48;;;;;;;;;;;17.90;1.00;;;;;;4999268;28;19949;-80
2022/01/10 12:54:26;;;;;;;;;;;17.40;1.00;;;;;;4999928;28;19922;-80
2022/01/10 12:56:52;;;;;;;;;;;16.90;1.00;;;;;;5001540;28;19910;-79
2022/01/10 12:59:19;;;;;;;;;;;17.30;1.00;;;;;;4984438;28;19941;-80
2022/01/10 13:01:45;;;;;;;;;;;17.50;1.00;;;;;;4998871;28;19910;-80
2022/01/10 13:04:11;;;;;;;;;;;17.10;1.00;;;;;;4996627;28;19921;-80
2022/01/10 13:06:38;;;;;;;;;;;16.30;1.00;;;;;;5000640;28;20255;-81
2022/01/10 13:09:05;;;;;;;;;;;16.20;99.90;;;;;;4984046;28;20393;-80
2022/01/10 13:11:41;;;;;;;;;;;15.60;99.90;;;;;;4998619;28;19910;-80
2022/01/10 13:14:08;;;;;;;;;;;15.70;99.90;;;;;;4996546;28;19925;-81
2022/01/10 13:16:34;;;;;;;;;;;16.20;99.90;;;;;;4979256;28;20063;-81
2022/01/10 13:19:00;;;;;;;;;;;15.70;99.90;;;;;;4980921;28;19949;-80
2022/01/10 13:21:40;;;;;;;;;;;16.20;99.90;;;;;;4980095;28;19909;-80
2022/01/10 13:24:12;;;;;;;;;;;16.30;99.90;;;;;;4997505;28;20390;-80
2022/01/10 13:26:53;;;;;;;;;;;16.40;99.90;;;;;;4995562;28;19914;-80
2022/01/10 13:29:51;;;;;;;;;;;15.60;99.90;;;;;;4997998;28;19910;-80
2022/01/10 13:32:19;;;;;;;;;;;15.50;99.90;;;;;;4968071;28;19942;-80
2022/01/10 13:34:45;;;;;;;;;;;15.70;99.90;;;;;;4980694;28;20564;-81
2022/01/10 13:37:12;;;;;;;;;;;15.70;99.90;;;;;;4980654;28;19910;-81
2022/01/10 13:39:37;;;;;;;;;;;15.30;99.90;;;;;;4997202;28;20282;-80
2022/01/10 13:42:05;;;;;;;;;;;15.00;99.90;;;;;;4999057;28;20008;-80
2022/01/10 13:44:31;;;;;;;;;;;15.40;99.90;;;;;;4998633;28;19909;-80
2022/01/10 13:47:05;;;;;;;;;;;15.60;99.90;;;;;;4996566;28;19916;-80
2022/01/10 13:49:31;;;;;;;;;;;15.90;99.90;;;;;;4995392;28;19949;-80
2022/01/10 13:52:10;;;;;;;;;;;16.20;99.90;;;;;;4996064;28;19913;-80
2022/01/10 13:54:35;;;;;;;;;;;15.90;99.90;;;;;;4989318;28;19945;-80
2022/01/10 13:57:17;;;;;;;;;;;15.50;99.90;;;;;;4998445;28;20334;-79
2022/01/10 13:59:43;;;;;;;;;;;15.00;99.90;;;;;;4993098;28;19914;-80
2022/01/10 14:02:09;;;;;;;;;;;14.70;99.90;;;;;;4995184;28;19921;-79
2022/01/10 14:04:35;;;;;;;;;;;14.20;99.90;;;;;;4980977;28;19917;-80
2022/01/10 14:07:17;;;;;;;;;;;13.60;99.90;;;;;;4997617;28;20401;-79
2022/01/10 14:09:43;;;;;;;;;;;13.20;99.90;;;;;;4996640;28;19924;-79
2022/01/10 14:12:12;;;;;;;;;;;12.90;99.90;;;;;;5016565;28;20005;-79
2022/01/10 14:14:37;;;;;;;;;;;12.90;99.90;;;;;;5000893;28;19910;-79
2022/01/10 14:17:03;;;;;;;;;;;12.90;99.90;;;;;;5000207;28;19920;-79
2022/01/10 14:19:28;;;;;;;;;;;12.90;99.90;;;;;;5001329;28;19964;-80
2022/01/10 14:21:54;;;;;;;;;;;12.80;99.90;;;;;;5000597;28;20410;-80
2022/01/10 14:24:20;;;;;;;;;;;12.50;99.90;;;;;;5000740;28;20390;-79
2022/01/10 14:26:46;;;;;;;;;;;12.50;99.90;;;;;;4999925;28;19910;-80
2022/01/10 14:29:12;;;;;;;;;;;12.60;99.90;;;;;;4983849;28;19945;-80
2022/01/10 14:31:37;;;;;;;;;;;12.60;99.90;;;;;;5001545;28;19956;-82
2022/01/10 14:34:03;;;;;;;;;;;12.30;99.90;;;;;;5002259;28;19910;-79
2022/01/10 14:36:29;;;;;;;;;;;12.10;99.90;;;;;;4988248;28;19925;-79
2022/01/10 14:38:54;;;;;;;;;;;11.90;99.90;;;;;;5006716;28;19914;-79
2022/01/10 14:41:22;;;;;;;;;;;11.80;99.90;;;;;;4989398;28;19910;-80
2022/01/10 14:43:48;;;;;;;;;;;11.80;99.90;;;;;;4984005;28;19918;-79
2022/01/10 14:46:13;;;;;;;;;;;11.40;99.90;;;;;;5000544;28;19956;-80